Time;durP1;ratioP1;P1;durP2;ratioP2;P2;SDS_P1;SDS_P2;PMS_P1;PMS_P2;Temp;Humidity;BMP_temperature;BMP_pressure;BME280_temperature;BME280_humidity;BME280_pressure;Samples;Min_cycle;Max_cycle;Signal;HPM_P1;HPM_P2
2022/08/20 00:02:41;;;;;;;0.82;0.80;;;;;;;20.90;71.84;101083.09;6259502;28;20045;-82
2022/08/20 00:05:46;;;;;;;1.67;0.80;;;;;;;20.88;72.10;101078.88;6227852;28;20054;-82
2022/08/20 00:08:48;;;;;;;1.65;1.10;;;;;;;20.82;72.65;101076.75;6227895;28;20501;-81
2022/08/20 00:11:49;;;;;;;1.50;0.90;;;;;;;20.75;72.83;101084.47;6227697;28;20054;-81
2022/08/20 00:14:51;;;;;;;0.98;0.93;;;;;;;20.74;73.23;101097.00;6227582;28;20489;-81
2022/08/20 00:17:54;;;;;;;0.98;0.73;;;;;;;20.73;73.21;101087.31;6227631;28;20057;-81
2022/08/20 00:20:56;;;;;;;0.98;0.90;;;;;;;20.79;73.53;101091.22;6232079;28;20064;-81
2022/08/20 00:23:58;;;;;;;1.05;0.98;;;;;;;20.83;73.75;101089.97;6268328;28;20052;-81
2022/08/20 00:26:59;;;;;;;1.75;0.90;;;;;;;20.86;75.07;101088.88;6276674;28;20049;-81
2022/08/20 00:30:01;;;;;;;2.67;1.10;;;;;;;20.86;75.19;101087.03;6275103;28;20508;-81
2022/08/20 00:33:06;;;;;;;1.73;1.00;;;;;;;20.87;74.65;101099.41;6276540;28;20072;-81
2022/08/20 00:36:10;;;;;;;1.73;0.90;;;;;;;20.87;73.45;101099.41;6276123;28;20049;-81
2022/08/20 00:39:12;;;;;;;1.27;0.82;;;;;;;20.90;73.10;101088.44;6276260;28;20066;-81
2022/08/20 00:42:13;;;;;;;1.75;1.20;;;;;;;20.92;72.34;101088.28;6275890;28;20393;-80
2022/08/20 00:45:16;;;;;;;3.28;1.10;;;;;;;20.90;72.80;101090.28;6276188;28;20409;-81
2022/08/20 00:48:19;;;;;;;2.25;1.20;;;;;;;20.90;74.24;101095.63;6276144;28;20519;-81
2022/08/20 00:51:26;;;;;;;1.25;1.10;;;;;;;20.90;74.91;101093.78;6275468;28;20044;-81
2022/08/20 00:54:33;;;;;;;1.60;1.30;;;;;;;20.88;75.40;101093.06;6275408;28;20099;-81
2022/08/20 00:57:39;;;;;;;2.22;1.30;;;;;;;20.89;75.35;101097.44;6274811;28;20061;-80
2022/08/20 01:00:43;;;;;;;1.52;1.20;;;;;;;20.84;75.02;101096.16;6275346;28;20045;-81
2022/08/20 01:03:46;;;;;;;3.00;1.30;;;;;;;20.80;76.34;101094.75;6275726;28;20052;-82
2022/08/20 01:06:47;;;;;;;3.45;1.65;;;;;;;20.77;76.39;101099.41;6276158;28;20064;-81
2022/08/20 01:09:49;;;;;;;3.80;1.17;;;;;;;20.71;77.27;101101.75;6275141;28;20045;-81
2022/08/20 01:12:55;;;;;;;4.30;1.67;;;;;;;20.67;77.16;101103.88;6275294;28;20041;-81
2022/08/20 01:15:59;;;;;;;5.88;1.40;;;;;;;20.68;77.13;101107.41;6274857;28;20053;-81
2022/08/20 01:19:01;;;;;;;2.20;1.48;;;;;;;20.68;78.71;101113.59;6275061;28;20485;-81
2022/08/20 01:23:25;;;;;;;1.98;1.45;;;;;;;20.69;79.32;101127.78;6274861;28;20076;-81
2022/08/20 01:25:32;;;;;;;2.40;1.17;;;;;;;20.68;80.63;101115.41;6275809;28;20428;-81
2022/08/20 01:28:39;;;;;;;3.30;1.40;;;;;;;20.71;80.02;101118.66;6275028;28;20144;-81
2022/08/20 01:31:41;;;;;;;2.20;1.13;;;;;;;20.70;78.95;101119.63;6277191;28;20052;-81
2022/08/20 01:34:42;;;;;;;2.75;1.63;;;;;;;20.68;78.89;101118.94;6275112;28;20053;-81
2022/08/20 01:37:44;;;;;;;2.25;1.45;;;;;;;20.69;78.71;101122.44;6274660;28;20688;-81
2022/08/20 01:41:10;;;;;;;1.85;1.27;;;;;;;20.70;79.96;101118.78;6275458;28;20053;-81
2022/08/20 01:44:12;;;;;;;2.75;1.45;;;;;;;20.69;80.15;101117.94;6274737;28;20044;-81
2022/08/20 01:47:17;;;;;;;2.58;1.38;;;;;;;20.64;78.92;101130.88;6275018;28;20041;-81
2022/08/20 01:50:24;;;;;;;3.08;1.60;;;;;;;20.69;78.00;101127.78;6274064;28;20063;-81
2022/08/20 01:53:32;;;;;;;2.42;1.23;;;;;;;20.61;77.85;101130.28;6275141;28;20045;-81
2022/08/20 01:56:35;;;;;;;1.60;1.27;;;;;;;20.56;79.21;101138.72;6274312;28;20059;-80
2022/08/20 01:59:37;;;;;;;2.33;1.50;;;;;;;20.59;77.18;101135.78;6273884;28;20052;-81
2022/08/20 02:02:39;;;;;;;2.17;1.40;;;;;;;20.62;77.74;101124.84;6274934;28;20049;-81
2022/08/20 02:05:40;;;;;;;3.50;1.70;;;;;;;20.65;78.29;101126.38;6275352;28;20492;-81
2022/08/20 02:08:42;;;;;;;1.17;1.05;;;;;;;20.65;78.72;101124.53;6274145;28;20060;-82
2022/08/20 02:11:46;;;;;;;1.10;1.00;;;;;;;20.65;79.75;101123.69;6274513;28;20070;-81
2022/08/20 02:14:51;;;;;;;2.20;1.50;;;;;;;20.64;79.20;101128.19;6274053;28;20056;-81
2022/08/20 02:17:52;;;;;;;1.75;1.38;;;;;;;20.65;79.62;101118.34;6275074;28;20053;-81
2022/08/20 02:20:53;;;;;;;3.13;1.30;;;;;;;20.64;79.10;101114.84;6274235;28;20608;-81
2022/08/20 02:23:55;;;;;;;2.25;1.15;;;;;;;20.64;78.00;101122.00;6274028;28;20061;-81
2022/08/20 02:26:57;;;;;;;2.50;1.70;;;;;;;20.66;78.56;101133.38;6274087;28;20528;-81
2022/08/20 02:29:59;;;;;;;6.63;1.42;;;;;;;20.61;78.94;101135.63;6231209;28;20052;-81
2022/08/20 02:33:03;;;;;;;1.25;1.05;;;;;;;20.60;79.98;101133.94;6226071;28;20054;-81
2022/08/20 02:36:05;;;;;;;2.17;1.40;;;;;;;20.58;79.72;101131.44;6225447;28;20068;-81
2022/08/20 02:39:08;;;;;;;3.03;1.50;;;;;;;20.53;79.50;101125.66;6239071;28;20045;-81
2022/08/20 02:42:11;;;;;;;1.27;1.10;;;;;;;20.52;79.99;101119.44;6263250;28;20044;-80
2022/08/20 02:45:16;;;;;;;1.55;1.08;;;;;;;20.53;79.97;101117.66;6267203;28;20413;-82
2022/08/20 02:48:21;;;;;;;2.35;1.55;;;;;;;20.52;80.26;101119.44;6271506;28;20504;-81
2022/08/20 02:51:23;;;;;;;1.65;1.35;;;;;;;20.52;81.31;101122.13;6274485;28;20045;-82
2022/08/20 02:54:24;;;;;;;2.15;1.30;;;;;;;20.56;79.70;101127.19;6279454;28;20048;-81
2022/08/20 02:57:28;;;;;;;4.35;1.45;;;;;;;20.51;77.36;101127.59;6273036;28;20041;-81
2022/08/20 03:00:32;;;;;;;4.30;2.08;;;;;;;20.49;76.43;101126.91;6281826;28;20041;-81
2022/08/20 03:03:33;;;;;;;2.28;1.30;;;;;;;20.50;77.01;101132.09;6281054;28;20045;-82
2022/08/20 03:06:34;;;;;;;3.58;2.13;;;;;;;20.46;75.55;101130.66;6281122;28;20056;-81
2022/08/20 03:09:37;;;;;;;2.17;1.50;;;;;;;20.49;76.79;101124.25;6281436;28;20057;-81
2022/08/20 03:12:38;;;;;;;2.58;1.35;;;;;;;20.47;76.53;101132.34;6281478;28;20061;-82
2022/08/20 03:15:43;;;;;;;2.10;1.45;;;;;;;20.47;79.04;101129.69;6281175;28;20053;-82
2022/08/20 03:18:46;;;;;;;3.47;1.40;;;;;;;20.46;77.95;101127.97;6254440;28;20068;-81
2022/08/20 03:21:47;;;;;;;1.42;1.10;;;;;;;20.42;78.15;101137.25;6232234;28;20081;-81
2022/08/20 03:24:49;;;;;;;3.05;1.15;;;;;;;20.43;80.28;101138.06;6232036;28;20417;-81
2022/08/20 03:27:50;;;;;;;1.63;1.40;;;;;;;20.42;84.91;101139.06;6232461;28;20057;-81
2022/08/20 03:30:55;;;;;;;2.95;1.63;;;;;;;20.36;87.54;101136.94;6232120;28;20137;-82
2022/08/20 03:33:56;;;;;;;2.10;1.25;;;;;;;20.34;89.99;101136.22;6232280;28;20564;-81
2022/08/20 03:36:57;;;;;;;2.40;1.73;;;;;;;20.27;92.09;101136.78;6231878;28;20046;-81
2022/08/20 03:40:00;;;;;;;2.67;1.85;;;;;;;20.27;92.85;101134.09;6231909;28;20053;-81
2022/08/20 03:43:01;;;;;;;2.78;2.20;;;;;;;20.22;92.29;101144.34;6231426;28;20493;-81
2022/08/20 03:46:04;;;;;;;3.20;1.95;;;;;;;20.11;92.69;101146.25;6232024;28;20053;-81
2022/08/20 03:49:07;;;;;;;3.25;1.88;;;;;;;20.10;92.30;101149.91;6231858;28;20068;-81
2022/08/20 03:52:08;;;;;;;5.60;2.67;;;;;;;20.04;92.05;101161.97;6231245;28;20076;-81
2022/08/20 03:55:10;;;;;;;2.75;2.15;;;;;;;19.98;92.40;101162.47;6231308;28;20058;-80
2022/08/20 03:58:12;;;;;;;3.75;2.08;;;;;;;19.92;93.83;101165.69;6232076;28;20050;-81
2022/08/20 04:01:15;;;;;;;7.28;2.40;;;;;;;19.94;93.59;101164.59;6237122;28;20054;-82
2022/08/20 04:04:16;;;;;;;3.97;2.38;;;;;;;19.95;93.57;101171.59;6231132;28;20053;-80
2022/08/20 04:07:24;;;;;;;3.92;2.25;;;;;;;19.96;93.16;101175.13;6228412;28;20054;-81
2022/08/20 04:10:26;;;;;;;3.45;2.15;;;;;;;20.02;92.28;101170.06;6227316;28;20542;-81
2022/08/20 04:13:30;;;;;;;3.50;2.25;;;;;;;20.01;91.43;101168.41;6227904;28;20131;-81
2022/08/20 04:16:33;;;;;;;3.47;2.38;;;;;;;20.02;91.90;101171.91;6227520;28;20060;-81
2022/08/20 04:19:35;;;;;;;3.13;2.25;;;;;;;19.99;91.92;101172.19;6228597;28;20057;-81
2022/08/20 04:22:37;;;;;;;2.35;1.77;;;;;;;19.97;92.27;101169.63;6227946;28;20395;-81
2022/08/20 04:25:40;;;;;;;6.65;2.60;;;;;;;19.96;90.63;101177.78;6228195;28;20434;-81
2022/08/20 04:28:41;;;;;;;3.22;1.75;;;;;;;20.02;90.25;101185.25;6247024;28;20495;-81
2022/08/20 04:31:44;;;;;;;4.38;2.38;;;;;;;19.98;90.36;101182.03;6251329;28;20421;-81
2022/08/20 04:34:45;;;;;;;3.78;2.60;;;;;;;19.97;90.95;101185.63;6251402;28;20053;-81
2022/08/20 04:37:48;;;;;;;5.65;3.08;;;;;;;19.94;90.94;101188.59;6251616;28;20049;-81
2022/08/20 04:40:56;;;;;;;5.80;2.90;;;;;;;19.87;91.35;101181.25;6250995;28;20056;-80
2022/08/20 04:43:59;;;;;;;4.50;3.00;;;;;;;19.85;91.83;101188.50;6251628;28;20045;-80
2022/08/20 04:47:03;;;;;;;7.90;3.55;;;;;;;19.88;91.62;101191.75;6251485;28;20060;-81
2022/08/20 04:50:08;;;;;;;6.88;3.20;;;;;;;19.88;91.61;101186.44;6251218;28;20413;-81
2022/08/20 04:53:12;;;;;;;6.88;3.00;;;;;;;19.93;92.88;101186.03;6251119;28;20452;-81
2022/08/20 04:56:13;;;;;;;5.47;3.75;;;;;;;19.93;92.71;101192.22;6251905;28;20045;-81
2022/08/20 04:59:14;;;;;;;7.32;3.85;;;;;;;19.93;93.88;101196.72;6251759;28;20464;-81
2022/08/20 05:02:20;;;;;;;7.75;3.50;;;;;;;19.81;96.47;101205.78;6252370;28;20057;-82
2022/08/20 05:05:22;;;;;;;10.35;3.78;;;;;;;19.73;100.00;101203.75;6252445;28;20056;-81
2022/08/20 05:08:24;;;;;;;7.18;4.18;;;;;;;19.67;100.00;101198.94;6252328;28;20445;-81
2022/08/20 05:11:26;;;;;;;6.20;3.95;;;;;;;19.56;100.00;101202.47;6252798;28;20052;-82
2022/08/20 05:14:28;;;;;;;6.80;3.97;;;;;;;19.58;100.00;101202.34;6251134;28;20050;-81
2022/08/20 05:17:31;;;;;;;6.95;3.85;;;;;;;19.52;100.00;101201.88;6252359;28;20420;-81
2022/08/20 05:20:34;;;;;;;9.32;4.40;;;;;;;19.58;100.00;101211.19;6251453;28;20057;-81
2022/08/20 05:23:41;;;;;;;8.32;4.10;;;;;;;19.57;100.00;101212.16;6252153;28;20147;-81
2022/08/20 05:26:43;;;;;;;7.47;4.07;;;;;;;19.62;100.00;101219.78;6251475;28;20049;-81
2022/08/20 05:29:44;;;;;;;9.85;5.15;;;;;;;19.55;100.00;101222.09;6251343;28;20056;-80
2022/08/20 05:32:48;;;;;;;9.73;5.35;;;;;;;19.57;100.00;101222.81;6252284;28;20053;-81
2022/08/20 05:35:52;;;;;;;9.68;4.82;;;;;;;19.54;100.00;101209.75;6251046;28;20196;-81
2022/08/20 05:38:53;;;;;;;11.23;4.75;;;;;;;19.60;100.00;101208.41;6251150;28;20070;-81
2022/08/20 05:41:55;;;;;;;7.75;4.40;;;;;;;19.64;100.00;101209.88;6250423;28;20053;-80
2022/08/20 05:44:56;;;;;;;10.55;5.65;;;;;;;19.72;100.00;101210.91;6249715;28;20076;-81
2022/08/20 05:48:03;;;;;;;10.90;5.35;;;;;;;19.79;100.00;101210.38;6252085;28;20065;-81
2022/08/20 05:51:05;;;;;;;10.25;4.55;;;;;;;19.77;100.00;101211.38;6251488;28;20052;-81
2022/08/20 05:54:07;;;;;;;11.77;6.07;;;;;;;19.75;100.00;101217.78;6251233;28;20045;-80
2022/08/20 05:57:08;;;;;;;11.13;6.18;;;;;;;19.77;100.00;101218.53;6250723;28;20049;-81
2022/08/20 06:00:12;;;;;;;15.13;6.07;;;;;;;19.76;100.00;101220.34;6235917;28;20049;-81
2022/08/20 06:06:36;;;;;;;12.95;6.57;;;;;;;19.72;100.00;101218.91;6225779;28;20429;-80
2022/08/20 06:09:38;;;;;;;10.15;4.97;;;;;;;19.73;100.00;101217.94;6227390;28;20096;-81
2022/08/20 06:12:43;;;;;;;9.70;4.38;;;;;;;19.84;100.00;101219.69;6228002;28;20045;-80
2022/08/20 06:15:45;;;;;;;9.50;4.93;;;;;;;19.86;100.00;101230.25;6227990;28;20093;-80
2022/08/20 06:18:48;;;;;;;10.18;4.75;;;;;;;19.92;100.00;101225.22;6227122;28;20057;-81
2022/08/20 06:21:49;;;;;;;7.70;4.55;;;;;;;19.93;100.00;101224.22;6226177;28;20057;-81
2022/08/20 06:24:51;;;;;;;9.20;4.35;;;;;;;19.96;100.00;101229.31;6226812;28;20417;-81
2022/08/20 06:27:52;;;;;;;11.05;4.90;;;;;;;19.98;100.00;101234.50;6225600;28;20050;-81
2022/08/20 06:30:53;;;;;;;7.18;4.07;;;;;;;19.98;100.00;101226.50;6228652;28;20053;-81
2022/08/20 06:33:56;;;;;;;5.82;3.83;;;;;;;20.04;100.00;101231.34;6250417;28;20041;-80
2022/08/20 06:36:58;;;;;;;7.68;4.60;;;;;;;20.10;100.00;101221.94;6253079;28;20128;-81
2022/08/20 06:40:03;;;;;;;9.68;4.05;;;;;;;20.16;100.00;101214.25;6245124;28;20065;-80
2022/08/20 06:43:05;;;;;;;12.60;3.90;;;;;;;20.21;100.00;101211.19;6233897;28;20394;-81
2022/08/20 06:46:06;;;;;;;8.27;5.00;;;;;;;20.09;100.00;101220.28;6257033;28;20183;-80
2022/08/20 06:49:09;;;;;;;13.02;5.68;;;;;;;20.08;100.00;101216.75;6265989;28;20515;-82
2022/08/20 06:52:11;;;;;;;8.27;4.80;;;;;;;20.11;100.00;101216.47;6262949;28;20420;-81
2022/08/20 06:55:14;;;;;;;9.02;4.53;;;;;;;20.19;100.00;101213.16;6270848;28;20056;-81
2022/08/20 06:58:15;;;;;;;7.57;4.28;;;;;;;20.23;100.00;101210.09;6273864;28;20052;-81
2022/08/20 07:01:19;;;;;;;10.80;5.55;;;;;;;20.19;100.00;101214.00;6273596;28;20136;-81
2022/08/20 07:04:23;;;;;;;7.75;4.40;;;;;;;20.14;100.00;101220.72;6274238;28;20053;-81
2022/08/20 07:07:24;;;;;;;9.98;4.35;;;;;;;20.14;100.00;101226.06;6267797;28;20048;-81
2022/08/20 07:10:26;;;;;;;8.70;5.40;;;;;;;20.14;100.00;101232.22;6261603;28;20052;-81
2022/08/20 07:13:28;;;;;;;8.30;4.47;;;;;;;20.35;100.00;101229.53;6250213;28;20056;-80
2022/08/20 07:16:29;;;;;;;5.95;3.90;;;;;;;20.33;100.00;101238.66;6263826;28;20049;-81
2022/08/20 07:19:32;;;;;;;6.88;3.60;;;;;;;20.24;100.00;101246.47;6273969;28;20520;-81
2022/08/20 07:22:35;;;;;;;6.95;3.47;;;;;;;20.30;100.00;101254.91;6247520;28;20512;-81
2022/08/20 07:25:37;;;;;;;7.15;3.33;;;;;;;20.37;100.00;101246.25;6263566;28;20048;-80
2022/08/20 07:28:39;;;;;;;8.35;4.25;;;;;;;20.36;100.00;101246.41;6273614;28;20056;-81
2022/08/20 07:35:00;;;;;;;10.02;5.43;;;;;;;20.33;100.00;101252.00;6260310;28;20045;-77
2022/08/20 07:38:02;;;;;;;9.95;5.10;;;;;;;20.26;100.00;101247.19;6259574;28;20048;-77
2022/08/20 07:41:05;;;;;;;8.25;4.75;;;;;;;20.32;100.00;101244.97;6267246;28;20064;-77
2022/08/20 07:44:07;;;;;;;8.43;4.97;;;;;;;20.41;100.00;101249.50;6253609;28;20044;-78
2022/08/20 07:47:08;;;;;;;10.88;5.57;;;;;;;20.45;100.00;101256.28;6268053;28;20045;-77
2022/08/20 07:50:14;;;;;;;7.63;4.53;;;;;;;20.48;100.00;101264.91;6271881;28;20462;-76
2022/08/20 07:53:16;;;;;;;9.20;5.13;;;;;;;20.47;100.00;101259.66;6264387;28;20049;-77
2022/08/20 07:56:21;;;;;;;9.98;4.88;;;;;;;20.41;100.00;101278.88;6270228;28;20049;-78
2022/08/20 07:59:23;;;;;;;7.55;4.82;;;;;;;20.38;100.00;101271.97;6275416;28;20612;-77
2022/08/20 08:02:25;;;;;;;11.15;5.05;;;;;;;20.36;100.00;101278.44;6272098;28;20477;-80
2022/08/20 08:05:28;;;;;;;8.75;4.72;;;;;;;20.35;100.00;101280.25;6271205;28;20424;-79
2022/08/20 08:08:32;;;;;;;12.15;4.72;;;;;;;20.33;100.00;101276.03;6279826;28;20047;-80
2022/08/20 08:11:36;;;;;;;6.15;4.20;;;;;;;20.39;100.00;101278.16;6279123;28;20041;-80
2022/08/20 08:14:38;;;;;;;7.60;4.38;;;;;;;20.31;100.00;101278.00;6280362;28;20056;-80
2022/08/20 08:17:39;;;;;;;6.35;3.90;;;;;;;20.27;100.00;101274.72;6280128;28;20122;-79
2022/08/20 08:20:44;;;;;;;5.45;3.88;;;;;;;20.35;100.00;101282.06;6259148;28;20048;-79
2022/08/20 08:23:46;;;;;;;6.50;4.22;;;;;;;20.31;100.00;101284.16;6267045;28;20045;-79
2022/08/20 08:26:48;;;;;;;5.25;3.60;;;;;;;20.25;100.00;101282.84;6281381;28;20060;-79
2022/08/20 08:29:50;;;;;;;6.22;4.13;;;;;;;20.19;100.00;101290.56;6280963;28;20053;-79
2022/08/20 08:36:13;;;;;;;6.00;3.35;;;;;;;20.21;100.00;101283.25;6262677;28;20532;-79
2022/08/20 08:39:15;;;;;;;5.85;3.10;;;;;;;20.26;100.00;101291.72;6256208;28;20505;-79
2022/08/20 08:42:26;;;;;;;4.85;3.05;;;;;;;20.28;100.00;101292.44;6263307;28;20049;-79
2022/08/20 08:45:34;;;;;;;4.60;3.85;;;;;;;20.32;100.00;101291.19;6260525;28;20529;-79
2022/08/20 08:48:42;;;;;;;5.57;3.65;;;;;;;20.37;100.00;101288.97;6253071;28;20390;-79
2022/08/20 08:51:49;;;;;;;7.82;4.40;;;;;;;20.45;100.00;101296.34;6252753;28;20068;-79
2022/08/20 08:54:54;;;;;;;8.88;4.53;;;;;;;20.46;100.00;101292.69;6253757;28;20049;-80
2022/08/20 08:58:00;;;;;;;10.60;4.80;;;;;;;20.54;100.00;101300.06;6252171;28;20049;-80
2022/08/20 09:01:08;;;;;;;8.77;4.10;;;;;;;20.63;100.00;101310.78;6252631;28;20068;-79
2022/08/20 09:04:09;;;;;;;4.82;2.92;;;;;;;20.71;100.00;101313.66;6252079;28;20180;-80
2022/08/20 09:07:16;;;;;;;7.05;4.10;;;;;;;20.73;100.00;101314.34;6253255;28;20095;-79
2022/08/20 09:10:17;;;;;;;7.07;3.72;;;;;;;20.71;100.00;101318.13;6251871;28;20111;-80
2022/08/20 09:13:19;;;;;;;7.85;4.05;;;;;;;20.77;100.00;101323.78;6251320;28;20177;-80
2022/08/20 09:16:22;;;;;;;7.50;3.85;;;;;;;20.79;100.00;101320.97;6257618;28;20068;-80
2022/08/20 09:19:23;;;;;;;6.68;4.10;;;;;;;20.76;100.00;101319.44;6252785;28;20065;-80
2022/08/20 09:22:26;;;;;;;5.88;3.45;;;;;;;20.89;100.00;101323.69;6250655;28;20515;-79
2022/08/20 09:25:27;;;;;;;7.20;4.50;;;;;;;20.95;100.00;101315.16;6251692;28;20045;-79
2022/08/20 09:28:29;;;;;;;6.72;3.25;;;;;;;21.02;100.00;101313.59;6251283;28;20049;-80
2022/08/20 09:31:30;;;;;;;5.45;3.25;;;;;;;21.12;100.00;101318.97;6254390;28;20052;-80
2022/08/20 09:34:35;;;;;;;7.72;3.50;;;;;;;21.14;100.00;101319.72;6257830;28;20072;-78
2022/08/20 09:37:38;;;;;;;6.60;4.18;;;;;;;21.10;100.00;101323.63;6231290;28;20386;-80
2022/08/20 09:40:39;;;;;;;4.25;3.05;;;;;;;21.15;100.00;101321.38;6258078;28;20049;-80
2022/08/20 09:43:41;;;;;;;4.00;2.67;;;;;;;21.28;100.00;101314.81;6270565;28;20508;-80
2022/08/20 09:46:42;;;;;;;6.78;3.88;;;;;;;21.38;100.00;101311.34;6266254;28;20057;-80
2022/08/20 09:49:44;;;;;;;7.30;4.20;;;;;;;21.40;100.00;101318.25;6274959;28;20044;-79
2022/08/20 09:52:50;;;;;;;7.45;3.88;;;;;;;21.31;100.00;101310.19;6274887;28;20052;-80
2022/08/20 09:55:54;;;;;;;6.38;4.25;;;;;;;21.24;100.00;101316.06;6275260;28;20053;-80
2022/08/20 09:58:55;;;;;;;6.35;3.70;;;;;;;21.34;100.00;101315.28;6275422;28;20506;-80
2022/08/20 10:01:57;;;;;;;5.25;3.47;;;;;;;21.19;100.00;101312.97;6275062;28;20053;-80
2022/08/20 10:04:58;;;;;;;5.55;3.45;;;;;;;21.18;100.00;101311.28;6275278;28;20052;-80
2022/08/20 10:08:05;;;;;;;4.10;2.92;;;;;;;21.17;100.00;101309.59;6276007;28;20424;-79
2022/08/20 10:11:06;;;;;;;6.10;4.28;;;;;;;21.18;100.00;101313.09;6275039;28;20049;-79
2022/08/20 10:14:08;;;;;;;7.50;5.03;;;;;;;21.07;100.00;101322.06;6272348;28;20053;-80
2022/08/20 10:17:09;;;;;;;8.75;4.65;;;;;;;21.14;100.00;101320.53;6246232;28;20049;-80
2022/08/20 10:20:13;;;;;;;10.65;4.82;;;;;;;21.09;100.00;101316.59;6256250;28;20049;-81
2022/08/20 10:23:16;;;;;;;6.82;4.50;;;;;;;21.22;100.00;101319.88;6250020;28;20049;-81
2022/08/20 10:26:18;;;;;;;10.30;5.28;;;;;;;21.32;100.00;101323.44;6261500;28;20050;-81
2022/08/20 10:29:19;;;;;;;6.15;3.92;;;;;;;21.41;100.00;101330.63;6276166;28;20053;-80
2022/08/20 10:32:20;;;;;;;5.55;3.67;;;;;;;21.62;100.00;101327.00;6256624;28;20038;-81
2022/08/20 10:35:22;;;;;;;9.43;5.38;;;;;;;21.65;100.00;101322.22;6246367;28;20049;-82
2022/08/20 10:38:24;;;;;;;5.53;3.92;;;;;;;21.74;100.00;101323.22;6262351;28;20424;-82
2022/08/20 10:41:27;;;;;;;6.65;3.75;;;;;;;21.89;100.00;101312.91;6253260;28;20045;-81
2022/08/20 10:44:28;;;;;;;8.60;5.68;;;;;;;22.01;100.00;101317.16;6250744;28;20053;-81
2022/08/20 10:47:32;;;;;;;7.70;4.28;;;;;;;22.15;100.00;101308.72;6251597;28;20040;-81
2022/08/20 10:50:33;;;;;;;9.23;4.75;;;;;;;22.20;100.00;101311.78;6251004;28;20053;-81
2022/08/20 10:53:36;;;;;;;7.97;4.90;;;;;;;22.15;100.00;101314.06;6251038;28;20382;-81
2022/08/20 10:56:37;;;;;;;4.82;3.60;;;;;;;22.00;100.00;101310.13;6249586;28;20057;-81
2022/08/20 10:59:39;;;;;;;4.78;3.25;;;;;;;22.03;100.00;101317.88;6248654;28;20056;-82
2022/08/20 11:02:40;;;;;;;7.38;3.20;;;;;;;22.14;98.88;101314.22;6249865;28;20657;-82
2022/08/20 11:05:42;;;;;;;6.78;4.00;;;;;;;22.26;96.78;101310.41;6249344;28;20060;-82
2022/08/20 11:08:45;;;;;;;5.03;3.17;;;;;;;22.40;95.45;101314.47;6249543;28;20049;-83
2022/08/20 11:11:46;;;;;;;3.63;2.20;;;;;;;22.49;95.85;101310.91;6248564;28;20042;-81
2022/08/20 11:14:50;;;;;;;2.83;2.28;;;;;;;22.50;93.54;101309.91;6251308;28;20041;-83
2022/08/20 11:17:51;;;;;;;1.77;1.50;;;;;;;22.56;90.14;101316.50;6254142;28;20045;-80
2022/08/20 11:20:53;;;;;;;3.22;1.50;;;;;;;22.60;86.91;101315.22;6250914;28;20720;-80
2022/08/20 11:23:56;;;;;;;2.42;1.30;;;;;;;22.49;85.42;101319.78;6242609;28;20046;-80
2022/08/20 11:26:57;;;;;;;2.47;1.60;;;;;;;22.59;85.10;101326.94;6237459;28;20053;-78
2022/08/20 11:29:59;;;;;;;1.98;1.38;;;;;;;22.42;84.27;101325.84;6254373;28;20052;-81
2022/08/20 11:33:02;;;;;;;3.10;1.30;;;;;;;22.31;86.17;101326.03;6250066;28;20041;-81
2022/08/20 11:36:04;;;;;;;1.55;1.10;;;;;;;22.75;87.00;101328.00;6259246;28;20325;-81
2022/08/20 11:39:07;;;;;;;2.60;1.40;;;;;;;23.28;82.20;101313.94;6256721;28;20412;-81
2022/08/20 11:42:08;;;;;;;1.13;0.93;;;;;;;23.41;80.03;101315.44;6258101;28;20050;-78
2022/08/20 11:45:11;;;;;;;3.13;1.20;;;;;;;23.51;77.44;101316.19;6263453;28;20046;-81
2022/08/20 11:48:12;;;;;;;4.03;1.50;;;;;;;23.08;76.51;101320.44;6274268;28;20186;-81
2022/08/20 11:51:14;;;;;;;3.10;1.20;;;;;;;23.16;77.20;101320.50;6266607;28;20065;-81
2022/08/20 11:54:16;;;;;;;3.60;0.90;;;;;;;23.10;75.62;101318.44;6261505;28;20057;-81
2022/08/20 11:57:20;;;;;;;4.68;1.00;;;;;;;23.58;75.72;101303.03;6262718;28;20060;-81
2022/08/20 12:00:23;;;;;;;2.75;0.90;;;;;;;23.74;73.10;101311.25;6248104;28;20049;-80
2022/08/20 12:03:24;;;;;;;2.15;0.70;;;;;;;23.49;70.31;101310.16;6264071;28;20052;-81
2022/08/20 12:06:25;;;;;;;1.90;0.90;;;;;;;23.45;71.32;101314.97;6254335;28;20049;-82
2022/08/20 12:09:28;;;;;;;1.65;0.65;;;;;;;23.72;70.14;101310.59;6254212;28;20069;-80
2022/08/20 12:12:29;;;;;;;1.00;0.68;;;;;;;24.00;69.30;101303.28;6254751;28;20409;-82
2022/08/20 12:15:31;;;;;;;1.00;0.90;;;;;;;23.99;67.71;101312.31;6254424;28;20059;-81
2022/08/20 12:18:32;;;;;;;2.90;1.08;;;;;;;24.33;69.02;101307.03;6258235;28;20475;-82
2022/08/20 12:21:34;;;;;;;0.93;0.68;;;;;;;24.86;63.94;101307.88;6255366;28;20052;-80
2022/08/20 12:24:37;;;;;;;2.42;0.57;;;;;;;25.35;64.64;101308.06;6254965;28;20049;-81
2022/08/20 12:27:39;;;;;;;1.95;0.68;;;;;;;25.18;60.38;101316.09;6253818;28;20049;-81
2022/08/20 12:30:40;;;;;;;1.35;0.60;;;;;;;24.81;55.80;101311.03;6253430;28;20046;-80
2022/08/20 12:33:42;;;;;;;3.80;0.40;;;;;;;25.05;55.32;101304.91;6254006;28;20053;-83
2022/08/20 12:36:43;;;;;;;0.60;0.60;;;;;;;25.27;53.96;101293.59;6249750;28;20053;-76
2022/08/20 12:39:49;;;;;;;1.00;0.73;;;;;;;25.68;54.63;101295.50;6252240;28;20490;-80
2022/08/20 12:42:50;;;;;;;1.20;0.57;;;;;;;26.08;53.22;101296.56;6255070;28;20056;-80
2022/08/20 12:45:51;;;;;;;2.08;0.70;;;;;;;25.85;53.27;101302.63;6252193;28;20056;-81
2022/08/20 12:48:53;;;;;;;1.52;1.30;;;;;;;25.48;55.23;101301.22;6251999;28;20421;-81
2022/08/20 12:51:54;;;;;;;0.50;0.50;;;;;;;25.17;56.33;101297.44;6252862;28;20402;-81
2022/08/20 12:54:58;;;;;;;1.38;0.47;;;;;;;24.78;57.32;101296.06;6251617;28;20139;-81
2022/08/20 12:58:01;;;;;;;2.08;0.70;;;;;;;24.68;56.08;101289.13;6251064;28;20045;-78
2022/08/20 13:01:03;;;;;;;1.63;0.82;;;;;;;24.91;56.40;101290.25;6251157;28;20425;-80
2022/08/20 13:04:04;;;;;;;0.95;0.60;;;;;;;24.99;56.38;101295.66;6252671;28;20045;-78
2022/08/20 13:07:05;;;;;;;0.73;0.60;;;;;;;25.20;57.23;101291.69;6252135;28;20056;-79
2022/08/20 13:10:16;;;;;;;3.53;0.63;;;;;;;25.29;56.80;101290.72;6252865;28;20056;-79
2022/08/20 13:13:18;;;;;;;1.27;0.75;;;;;;;24.96;55.91;101287.91;6252451;28;20046;-83
2022/08/20 13:16:19;;;;;;;1.38;0.50;;;;;;;24.71;57.41;101292.34;6255548;28;20140;-81
2022/08/20 13:19:20;;;;;;;1.45;0.77;;;;;;;24.36;59.34;101292.44;6258376;28;20057;-80
2022/08/20 13:22:22;;;;;;;2.47;0.90;;;;;;;24.37;60.75;101299.53;6255210;28;20136;-82
2022/08/20 13:25:25;;;;;;;2.72;1.13;;;;;;;24.32;60.97;101296.44;6255934;28;20049;-80
2022/08/20 13:28:27;;;;;;;2.08;0.88;;;;;;;24.68;61.32;101286.44;6256082;28;20049;-81
2022/08/20 13:31:28;;;;;;;3.17;0.73;;;;;;;25.13;59.47;101293.38;6258276;28;20056;-81
2022/08/20 13:34:30;;;;;;;3.40;0.80;;;;;;;25.62;57.79;101288.06;6259219;28;20041;-81
2022/08/20 13:37:31;;;;;;;1.75;0.70;;;;;;;25.65;56.96;101293.13;6258323;28;20520;-81
2022/08/20 13:40:34;;;;;;;0.98;0.57;;;;;;;25.81;55.57;101282.41;6261350;28;20049;-79
2022/08/20 13:43:35;;;;;;;1.05;0.60;;;;;;;26.05;54.25;101274.31;6259844;28;20046;-79
2022/08/20 13:46:36;;;;;;;2.55;0.70;;;;;;;26.53;53.30;101279.81;6257503;28;20431;-79
2022/08/20 13:49:38;;;;;;;0.70;0.50;;;;;;;26.76;52.63;101275.34;6257831;28;20052;-78
2022/08/20 13:52:40;;;;;;;1.38;0.75;;;;;;;26.96;50.40;101269.53;6254901;28;20046;-79
2022/08/20 13:55:43;;;;;;;1.75;1.10;;;;;;;26.87;49.86;101266.03;6258397;28;20049;-78
2022/08/20 13:58:45;;;;;;;2.75;0.98;;;;;;;27.21;48.54;101270.28;6255519;28;20414;-80
2022/08/20 14:01:46;;;;;;;0.77;0.52;;;;;;;26.26;49.10;101281.03;6257038;28;20056;-79
2022/08/20 14:04:48;;;;;;;0.50;0.50;;;;;;;25.93;51.73;101272.13;6256892;28;20050;-79
2022/08/20 14:07:50;;;;;;;1.67;0.45;;;;;;;26.25;47.69;101269.41;6257292;28;20046;-79
2022/08/20 14:10:53;;;;;;;2.17;0.90;;;;;;;26.07;47.11;101279.53;6257586;28;20054;-79
2022/08/20 14:13:54;;;;;;;1.70;0.55;;;;;;;26.28;47.45;101274.44;6252753;28;20042;-78
2022/08/20 14:16:55;;;;;;;0.80;0.60;;;;;;;26.07;47.28;101274.13;6254795;28;20097;-80